Time;durP1;ratioP1;P1;durP2;ratioP2;P2;SDS_P1;SDS_P2;PMS_P1;PMS_P2;Temp;Humidity;BMP_temperature;BMP_pressure;BME280_temperature;BME280_humidity;BME280_pressure;Samples;Min_cycle;Max_cycle;Signal;HPM_P1;HPM_P2
2021/11/11 00:00:51;;;;;;;25.77;14.93;;;5.10;99.90;;;;;;5073677;28;20058;-66
2021/11/11 00:03:18;;;;;;;21.40;13.05;;;5.00;99.90;;;;;;5074329;28;20040;-65
2021/11/11 00:05:44;;;;;;;20.05;13.30;;;5.00;99.90;;;;;;5073660;28;20033;-64
2021/11/11 00:08:11;;;;;;;19.63;13.05;;;5.20;99.90;;;;;;5074302;28;20024;-66
2021/11/11 00:10:37;;;;;;;20.80;13.15;;;5.20;99.90;;;;;;5055618;28;20028;-68
2021/11/11 00:13:03;;;;;;;22.00;12.80;;;5.20;99.90;;;;;;5074625;28;20021;-66
2021/11/11 00:15:31;;;;;;;23.50;12.65;;;5.30;99.90;;;;;;5074028;28;20485;-67
2021/11/11 00:17:57;;;;;;;18.98;12.05;;;5.20;99.90;;;;;;5074028;28;20110;-66
2021/11/11 00:20:26;;;;;;;18.15;13.00;;;5.20;99.90;;;;;;5074039;28;20032;-66
2021/11/11 00:22:53;;;;;;;18.60;12.85;;;5.20;99.90;;;;;;5073728;28;20021;-64
2021/11/11 00:25:21;;;;;;;27.15;13.25;;;5.20;99.90;;;;;;5073962;28;20078;-66
2021/11/11 00:27:47;;;;;;;17.45;12.55;;;5.10;99.90;;;;;;5073925;28;20040;-66
2021/11/11 00:30:17;;;;;;;21.73;13.07;;;5.20;99.90;;;;;;5073932;28;20033;-65
2021/11/11 00:32:44;;;;;;;21.25;12.55;;;5.20;99.90;;;;;;5055323;28;20048;-65
2021/11/11 00:35:12;;;;;;;18.80;13.00;;;5.20;99.90;;;;;;5055815;28;20021;-65
2021/11/11 00:37:38;;;;;;;25.75;14.05;;;5.20;99.90;;;;;;5073254;28;20017;-66
2021/11/11 00:40:06;;;;;;;22.52;13.57;;;5.20;99.90;;;;;;5073751;28;20035;-65
2021/11/11 00:42:32;;;;;;;20.70;13.65;;;5.10;99.90;;;;;;5055709;28;20024;-65
2021/11/11 00:44:57;;;;;;;20.40;12.43;;;5.00;99.90;;;;;;5073071;28;20029;-65
2021/11/11 00:47:23;;;;;;;25.33;12.95;;;4.90;99.90;;;;;;5073336;28;20029;-65
2021/11/11 00:49:49;;;;;;;21.98;12.18;;;4.80;99.90;;;;;;5073047;28;20119;-65
2021/11/11 00:52:15;;;;;;;19.15;11.95;;;5.00;99.90;;;;;;5073986;28;20071;-66
2021/11/11 00:54:42;;;;;;;18.80;12.05;;;5.20;99.90;;;;;;5054911;28;20403;-65
2021/11/11 00:57:09;;;;;;;17.38;12.10;;;5.10;99.90;;;;;;5055506;28;20540;-67
2021/11/11 00:59:35;;;;;;;17.60;12.23;;;5.00;99.90;;;;;;5073177;28;20041;-66
2021/11/11 01:02:06;;;;;;;17.98;12.35;;;5.00;99.90;;;;;;5072135;28;20034;-66
2021/11/11 01:04:32;;;;;;;19.80;11.45;;;4.90;99.90;;;;;;5072106;28;20025;-65
2021/11/11 01:06:57;;;;;;;20.33;13.80;;;4.90;99.90;;;;;;5072626;28;20033;-65
2021/11/11 01:09:23;;;;;;;21.55;12.27;;;4.90;99.90;;;;;;5073615;28;20037;-66
2021/11/11 01:11:49;;;;;;;18.10;11.73;;;4.90;99.90;;;;;;5071203;28;20374;-65
2021/11/11 01:14:16;;;;;;;19.80;11.40;;;4.90;99.90;;;;;;5072719;28;20029;-65
2021/11/11 01:16:41;;;;;;;20.13;12.13;;;4.90;99.90;;;;;;5050650;28;20048;-65
2021/11/11 01:19:07;;;;;;;17.52;12.80;;;4.80;99.90;;;;;;5051728;28;20389;-66
2021/11/11 01:21:33;;;;;;;16.48;12.32;;;4.70;99.90;;;;;;5051570;28;20032;-66
2021/11/11 01:23:58;;;;;;;21.48;12.68;;;4.80;99.90;;;;;;5052021;28;20084;-65
2021/11/11 01:26:24;;;;;;;21.77;12.35;;;4.70;99.90;;;;;;5054368;28;20434;-66
2021/11/11 01:28:49;;;;;;;15.25;12.35;;;4.80;99.90;;;;;;5062383;28;20025;-66
2021/11/11 01:31:15;;;;;;;21.60;11.25;;;4.90;99.90;;;;;;5053745;28;20033;-65
2021/11/11 01:33:41;;;;;;;17.60;11.43;;;4.90;99.90;;;;;;5053303;28;20025;-68
2021/11/11 01:36:06;;;;;;;18.90;12.18;;;4.90;99.90;;;;;;5052563;28;20075;-67
2021/11/11 01:38:32;;;;;;;21.73;12.13;;;4.90;99.90;;;;;;5051690;28;20028;-65
2021/11/11 01:40:58;;;;;;;21.23;13.02;;;4.80;99.90;;;;;;5050542;28;20041;-66
2021/11/11 01:43:23;;;;;;;23.08;12.68;;;4.80;99.90;;;;;;5052722;28;20120;-65
2021/11/11 01:45:49;;;;;;;16.83;11.65;;;4.80;99.90;;;;;;5051470;28;20471;-65
2021/11/11 01:48:16;;;;;;;18.85;12.23;;;4.70;99.90;;;;;;5052941;28;20037;-65
2021/11/11 01:50:44;;;;;;;17.17;11.50;;;4.70;99.90;;;;;;5051534;28;20112;-71
2021/11/11 01:53:13;;;;;;;21.50;12.75;;;4.70;99.90;;;;;;5052167;28;20033;-67
2021/11/11 01:55:44;;;;;;;18.10;12.52;;;4.80;99.90;;;;;;5051078;28;20021;-66
2021/11/11 01:58:10;;;;;;;15.50;11.33;;;4.80;99.90;;;;;;5034841;28;20028;-65
2021/11/11 02:00:40;;;;;;;23.48;11.20;;;4.70;99.90;;;;;;5050747;28;20339;-65
2021/11/11 02:03:07;;;;;;;16.77;10.68;;;4.80;99.90;;;;;;5051389;28;20029;-65
2021/11/11 02:05:34;;;;;;;18.45;12.00;;;4.70;99.90;;;;;;5052035;28;20025;-65
2021/11/11 02:08:00;;;;;;;16.13;10.82;;;4.80;99.90;;;;;;5050031;28;20116;-65
2021/11/11 02:10:28;;;;;;;21.92;11.90;;;4.80;99.90;;;;;;5050517;28;20060;-65
2021/11/11 02:12:54;;;;;;;17.13;12.13;;;4.70;99.90;;;;;;5049041;28;20369;-66
2021/11/11 02:15:21;;;;;;;18.75;11.88;;;4.80;99.90;;;;;;5050488;28;20029;-65
2021/11/11 02:17:48;;;;;;;21.35;13.10;;;4.70;99.90;;;;;;5086842;28;20112;-66
2021/11/11 02:20:17;;;;;;;19.55;11.57;;;4.80;99.90;;;;;;5091857;28;20098;-65
2021/11/11 02:22:43;;;;;;;19.67;12.25;;;4.70;99.90;;;;;;5073453;28;20391;-66
2021/11/11 02:25:14;;;;;;;24.55;12.00;;;4.50;99.90;;;;;;5091590;28;20118;-65
2021/11/11 02:27:41;;;;;;;20.50;12.02;;;4.60;99.90;;;;;;5091796;28;20081;-65
2021/11/11 02:30:11;;;;;;;17.15;12.63;;;4.40;99.90;;;;;;5073007;28;20046;-66
2021/11/11 02:32:37;;;;;;;16.77;11.65;;;4.40;99.90;;;;;;5091815;28;20054;-65
2021/11/11 02:35:05;;;;;;;19.90;13.10;;;4.30;99.90;;;;;;5072840;28;20097;-65
2021/11/11 02:37:32;;;;;;;18.90;12.05;;;4.20;99.90;;;;;;5091807;28;20028;-66
2021/11/11 02:39:59;;;;;;;19.85;12.80;;;4.20;99.90;;;;;;5091005;28;20036;-64
2021/11/11 02:42:26;;;;;;;15.32;11.48;;;4.20;99.90;;;;;;5091579;28;20033;-65
2021/11/11 02:44:57;;;;;;;16.52;11.52;;;4.20;99.90;;;;;;5090826;28;20047;-65
2021/11/11 02:47:23;;;;;;;21.65;11.55;;;4.30;99.90;;;;;;5091194;28;20043;-65
2021/11/11 02:49:49;;;;;;;17.30;11.18;;;4.30;99.90;;;;;;5090585;28;20036;-66
2021/11/11 02:52:16;;;;;;;23.90;11.68;;;4.30;99.90;;;;;;5072880;28;20028;-65
2021/11/11 02:54:42;;;;;;;16.13;10.73;;;4.20;99.90;;;;;;5091181;28;20388;-66
2021/11/11 02:57:24;;;;;;;18.13;11.27;;;4.20;99.90;;;;;;5072617;28;20124;-66
2021/11/11 02:59:53;;;;;;;;;;;4.20;99.90;;;;;;5091238;28;20020;-66
2021/11/11 03:02:28;;;;;;;15.55;10.30;;;4.30;99.90;;;;;;5073194;28;20364;-65
2021/11/11 03:04:55;;;;;;;18.48;11.68;;;4.20;99.90;;;;;;5072676;28;20028;-66
2021/11/11 03:07:21;;;;;;;19.65;11.45;;;4.30;99.90;;;;;;5073321;28;20119;-65
2021/11/11 03:09:47;;;;;;;21.92;12.40;;;4.20;99.90;;;;;;5090661;28;20566;-68
2021/11/11 03:12:14;;;;;;;16.45;12.40;;;4.10;99.90;;;;;;5091397;28;20024;-65
2021/11/11 03:14:41;;;;;;;17.83;10.60;;;4.00;99.90;;;;;;5091088;28;20104;-66
2021/11/11 03:17:08;;;;;;;15.52;10.77;;;4.20;99.90;;;;;;5068977;28;20433;-64
2021/11/11 03:19:34;;;;;;;14.55;10.70;;;4.10;99.90;;;;;;5069771;28;20071;-66
2021/11/11 03:22:02;;;;;;;19.05;11.52;;;4.10;99.90;;;;;;5070269;28;20150;-66
2021/11/11 03:24:28;;;;;;;18.50;11.88;;;4.00;99.90;;;;;;5072559;28;20082;-66
2021/11/11 03:26:53;;;;;;;16.48;11.27;;;4.00;99.90;;;;;;5072983;28;20021;-65
2021/11/11 03:29:19;;;;;;;15.88;11.45;;;4.00;99.90;;;;;;5074687;28;20097;-65
2021/11/11 03:31:45;;;;;;;18.13;11.50;;;4.10;99.90;;;;;;5074475;28;20052;-65
2021/11/11 03:34:10;;;;;;;16.67;11.48;;;4.10;99.90;;;;;;5074192;28;20416;-65
2021/11/11 03:36:36;;;;;;;17.80;11.80;;;3.90;99.90;;;;;;5073235;28;20024;-64
2021/11/11 03:39:04;;;;;;;17.77;11.57;;;3.80;99.90;;;;;;5073765;28;20035;-65
2021/11/11 03:41:29;;;;;;;16.88;12.23;;;3.80;99.90;;;;;;5073372;28;20032;-66
2021/11/11 03:43:55;;;;;;;18.42;12.43;;;3.80;99.90;;;;;;5074144;28;20484;-65
2021/11/11 03:46:21;;;;;;;19.17;12.40;;;3.70;99.90;;;;;;5074179;28;20036;-65
2021/11/11 03:48:47;;;;;;;19.08;12.77;;;3.60;99.90;;;;;;5073058;28;20077;-65
2021/11/11 03:51:13;;;;;;;16.75;12.13;;;3.80;99.90;;;;;;5074136;28;20039;-65
2021/11/11 03:53:40;;;;;;;19.52;12.45;;;3.70;99.90;;;;;;5074475;28;20446;-65
2021/11/11 03:56:06;;;;;;;18.67;12.32;;;3.80;99.90;;;;;;5072359;28;20466;-66
2021/11/11 03:58:32;;;;;;;20.92;13.63;;;3.80;99.90;;;;;;5073253;28;20032;-65
2021/11/11 04:00:58;;;;;;;22.00;13.68;;;3.60;99.90;;;;;;5073694;28;20037;-66
2021/11/11 04:03:24;;;;;;;22.38;13.07;;;3.50;99.90;;;;;;5074150;28;20021;-65
2021/11/11 04:05:50;;;;;;;19.00;12.93;;;3.50;99.90;;;;;;5073741;28;20109;-73
2021/11/11 04:08:17;;;;;;;21.20;12.90;;;3.40;99.90;;;;;;5072801;28;20024;-64
2021/11/11 04:10:42;;;;;;;19.70;12.68;;;3.50;99.90;;;;;;5073785;28;20037;-65
2021/11/11 04:13:08;;;;;;;20.98;13.38;;;3.60;99.90;;;;;;5073391;28;20048;-65
2021/11/11 04:15:34;;;;;;;17.77;11.43;;;3.60;99.90;;;;;;5073988;28;20435;-66
2021/11/11 04:18:00;;;;;;;19.92;11.50;;;3.60;99.90;;;;;;5093828;28;20152;-65
2021/11/11 04:20:27;;;;;;;15.77;10.32;;;3.70;99.90;;;;;;5094209;28;20047;-64
2021/11/11 04:22:53;;;;;;;15.63;10.75;;;3.60;99.90;;;;;;5093792;28;20055;-65
2021/11/11 04:25:29;;;;;;;12.15;9.68;;;3.60;99.90;;;;;;5094328;28;20028;-65
2021/11/11 04:30:34;;;;;;;21.38;10.13;;;3.50;99.90;;;;;;5094304;28;20046;-64
2021/11/11 04:33:01;;;;;;;16.95;10.90;;;3.30;99.90;;;;;;5075550;28;20074;-64
2021/11/11 04:35:27;;;;;;;15.77;9.60;;;3.40;99.90;;;;;;5074969;28;20128;-64
2021/11/11 04:40:48;;;;;;;14.30;9.40;;;3.40;99.90;;;;;;5093689;28;20032;-65
2021/11/11 04:43:34;;;;;;;16.67;9.90;;;3.30;99.90;;;;;;5074977;28;20492;-64
2021/11/11 04:49:40;;;;;;;13.80;9.45;;;3.30;99.90;;;;;;5093775;28;20096;-64
2021/11/11 05:05:14;;;;;;;12.88;8.02;;;3.10;99.90;;;;;;5092604;28;20066;-64
2021/11/11 05:07:40;;;;;;;13.13;9.00;;;3.20;99.90;;;;;;5092805;28;20127;-64
2021/11/11 05:10:06;;;;;;;15.10;10.27;;;3.10;99.90;;;;;;5093107;28;20071;-64
2021/11/11 05:12:32;;;;;;;14.25;9.68;;;3.10;99.90;;;;;;5074799;28;20042;-64
2021/11/11 05:14:57;;;;;;;19.38;10.95;;;3.10;99.90;;;;;;5092330;28;20050;-65
2021/11/11 05:17:24;;;;;;;17.05;11.27;;;2.70;99.90;;;;;;5074335;28;20093;-65
2021/11/11 05:19:51;;;;;;;29.50;12.73;;;2.80;99.90;;;;;;5072570;28;20043;-64
2021/11/11 05:22:17;;;;;;;17.33;12.32;;;2.60;99.90;;;;;;5072088;28;20027;-64
2021/11/11 05:24:43;;;;;;;15.07;10.45;;;2.50;99.90;;;;;;5072725;28;20016;-64
2021/11/11 05:27:11;;;;;;;21.55;12.13;;;2.70;99.90;;;;;;5071545;28;20031;-65
2021/11/11 05:29:37;;;;;;;20.77;11.48;;;2.50;99.90;;;;;;5054290;28;20090;-64
2021/11/11 05:32:03;;;;;;;48.45;13.60;;;2.60;99.90;;;;;;5071884;28;20060;-65
2021/11/11 05:34:28;;;;;;;24.48;11.80;;;2.80;99.90;;;;;;5072239;28;20106;-65
2021/11/11 05:36:54;;;;;;;24.92;12.43;;;2.90;99.90;;;;;;5054383;28;20064;-68
2021/11/11 05:39:20;;;;;;;20.63;11.15;;;3.00;99.90;;;;;;5071850;28;20474;-65
2021/11/11 05:41:47;;;;;;;20.05;12.05;;;3.00;99.90;;;;;;5071679;28;20038;-64
2021/11/11 05:44:13;;;;;;;25.77;11.88;;;3.10;99.90;;;;;;5071735;28;20025;-64
2021/11/11 05:46:39;;;;;;;20.50;13.60;;;3.00;99.90;;;;;;5053464;28;20025;-65
2021/11/11 05:49:04;;;;;;;17.67;12.60;;;2.70;99.90;;;;;;5052877;28;20119;-64
2021/11/11 05:51:30;;;;;;;16.42;11.20;;;2.50;99.90;;;;;;5071810;28;20021;-64
2021/11/11 05:53:56;;;;;;;20.23;12.30;;;2.60;99.90;;;;;;5071483;28;20024;-71
2021/11/11 05:56:22;;;;;;;16.65;11.50;;;2.50;99.90;;;;;;5053201;28;20025;-66
2021/11/11 05:58:47;;;;;;;23.92;12.57;;;2.50;99.90;;;;;;5071651;28;20028;-65
2021/11/11 06:01:13;;;;;;;19.10;11.30;;;2.50;99.90;;;;;;5071435;28;20052;-65
2021/11/11 06:03:38;;;;;;;26.00;12.23;;;2.50;99.90;;;;;;5071724;28;20024;-65
2021/11/11 06:06:04;;;;;;;17.83;12.07;;;2.30;99.90;;;;;;5070798;28;20028;-65
2021/11/11 06:08:30;;;;;;;18.30;11.45;;;2.40;99.90;;;;;;5053746;28;20024;-65
2021/11/11 06:10:55;;;;;;;21.13;11.98;;;2.60;99.90;;;;;;5071704;28;20040;-64
2021/11/11 06:13:22;;;;;;;22.25;12.38;;;2.80;99.90;;;;;;5070737;28;20167;-65
2021/11/11 06:15:48;;;;;;;22.77;11.95;;;3.00;99.90;;;;;;5071010;28;20481;-66
2021/11/11 06:18:15;;;;;;;20.08;11.57;;;2.80;99.90;;;;;;5052839;28;20501;-65
2021/11/11 06:20:45;;;;;;;22.13;12.98;;;2.90;99.90;;;;;;5053129;28;20032;-66
2021/11/11 06:23:12;;;;;;;28.75;15.35;;;2.90;99.90;;;;;;5070683;28;20071;-65
2021/11/11 06:25:40;;;;;;;27.38;15.40;;;2.70;99.90;;;;;;5053238;28;20134;-64
2021/11/11 06:28:07;;;;;;;31.23;15.95;;;2.80;99.90;;;;;;5070632;28;20036;-65
2021/11/11 06:30:33;;;;;;;41.75;14.95;;;2.50;99.90;;;;;;5071745;28;20035;-65
2021/11/11 06:32:58;;;;;;;33.55;14.23;;;2.60;99.90;;;;;;5070630;28;20104;-73
2021/11/11 06:35:25;;;;;;;24.15;13.63;;;2.50;99.90;;;;;;5053010;28;20020;-65
2021/11/11 06:37:51;;;;;;;26.25;14.27;;;2.40;99.90;;;;;;5070957;28;20032;-65
2021/11/11 06:40:17;;;;;;;24.73;14.85;;;2.20;99.90;;;;;;5070017;28;20127;-66
2021/11/11 06:42:42;;;;;;;25.42;13.38;;;2.40;99.90;;;;;;5071049;28;20059;-66
2021/11/11 06:45:12;;;;;;;32.83;14.13;;;2.60;99.90;;;;;;5070050;28;20024;-65
2021/11/11 06:47:42;;;;;;;27.38;14.98;;;2.80;99.90;;;;;;5052140;28;20067;-65
2021/11/11 06:50:09;;;;;;;25.15;13.63;;;3.00;99.90;;;;;;5069766;28;20036;-65
2021/11/11 06:52:36;;;;;;;24.98;12.85;;;3.30;99.90;;;;;;5052282;28;20033;-65
2021/11/11 06:55:02;;;;;;;19.80;12.98;;;3.20;99.90;;;;;;5070083;28;20094;-67
2021/11/11 06:57:28;;;;;;;27.02;13.45;;;3.20;99.90;;;;;;5070553;28;20048;-65
2021/11/11 06:59:53;;;;;;;21.70;13.05;;;3.10;99.90;;;;;;5072766;28;20478;-65
2021/11/11 07:02:19;;;;;;;22.05;12.73;;;3.10;99.90;;;;;;5074375;28;20268;-65
2021/11/11 07:04:45;;;;;;;26.80;14.13;;;3.20;99.90;;;;;;5056322;28;20028;-65
2021/11/11 07:07:11;;;;;;;22.25;13.88;;;3.30;99.90;;;;;;5056051;28;20024;-64
2021/11/11 07:09:37;;;;;;;24.67;13.93;;;3.30;99.90;;;;;;5074879;28;20034;-65
2021/11/11 07:12:03;;;;;;;30.13;14.20;;;3.30;99.90;;;;;;5056010;28;20068;-65
2021/11/11 07:14:28;;;;;;;25.23;12.93;;;3.40;99.90;;;;;;5074431;28;20063;-65
2021/11/11 07:16:54;;;;;;;29.48;15.07;;;3.30;99.90;;;;;;5056297;28;20402;-65
2021/11/11 07:19:20;;;;;;;21.50;14.13;;;3.20;99.90;;;;;;5073653;28;20051;-64
2021/11/11 07:21:45;;;;;;;26.27;13.38;;;3.20;99.90;;;;;;5074208;28;20051;-65
2021/11/11 07:24:11;;;;;;;25.95;13.23;;;3.30;99.90;;;;;;5055609;28;20484;-64
2021/11/11 07:26:37;;;;;;;22.00;11.80;;;3.40;99.90;;;;;;5056903;28;20115;-66
2021/11/11 07:29:02;;;;;;;19.27;12.40;;;3.40;99.90;;;;;;5084518;28;20059;-71
2021/11/11 07:31:29;;;;;;;18.73;11.13;;;3.50;99.90;;;;;;5074922;28;20028;-67
2021/11/11 07:33:55;;;;;;;17.67;11.63;;;3.50;99.90;;;;;;5056671;28;20076;-65
2021/11/11 07:36:21;;;;;;;21.50;11.75;;;3.90;99.90;;;;;;5073905;28;20021;-67
2021/11/11 07:38:46;;;;;;;14.13;9.90;;;3.70;99.90;;;;;;5056153;28;20327;-66
2021/11/11 07:41:12;;;;;;;15.70;10.50;;;3.70;99.90;;;;;;5072677;28;20539;-67
2021/11/11 07:43:38;;;;;;;18.98;10.48;;;3.70;99.90;;;;;;5073508;28;20077;-67
2021/11/11 07:46:05;;;;;;;14.93;9.65;;;3.60;99.90;;;;;;5072206;28;20036;-66
2021/11/11 07:48:32;;;;;;;17.30;11.90;;;3.70;99.90;;;;;;5058857;28;20029;-66
2021/11/11 07:50:59;;;;;;;17.77;11.10;;;3.70;99.90;;;;;;5074497;28;20028;-65
2021/11/11 07:53:26;;;;;;;21.58;10.85;;;3.80;99.90;;;;;;5073305;28;20105;-65
2021/11/11 07:55:52;;;;;;;13.98;10.90;;;3.70;99.90;;;;;;5088982;28;20034;-66
2021/11/11 07:58:18;;;;;;;16.48;10.68;;;3.50;99.90;;;;;;5092341;28;20111;-65
2021/11/11 08:00:43;;;;;;;17.10;11.55;;;3.60;99.90;;;;;;5093401;28;20370;-67
2021/11/11 08:03:09;;;;;;;16.90;11.43;;;3.70;99.90;;;;;;5075014;28;20043;-65
2021/11/11 08:05:35;;;;;;;17.60;12.32;;;3.60;99.90;;;;;;5071322;28;20461;-66
2021/11/11 08:08:01;;;;;;;20.13;12.15;;;3.70;99.90;;;;;;5078219;28;20484;-67
2021/11/11 08:10:27;;;;;;;18.83;11.27;;;3.80;99.90;;;;;;5053726;28;20036;-67
2021/11/11 08:12:52;;;;;;;20.73;12.00;;;3.80;99.90;;;;;;5061172;28;20032;-67
2021/11/11 08:15:18;;;;;;;20.17;12.63;;;3.70;99.90;;;;;;5067462;28;20036;-68
2021/11/11 08:17:45;;;;;;;21.65;12.75;;;3.90;99.90;;;;;;5073311;28;20067;-65
2021/11/11 08:20:13;;;;;;;37.78;17.63;;;3.90;99.90;;;;;;5092779;28;20564;-65
2021/11/11 08:22:40;;;;;;;20.23;10.73;;;4.10;99.90;;;;;;5069510;28;20024;-65
2021/11/11 08:25:08;;;;;;;16.20;10.85;;;4.20;99.90;;;;;;5070215;28;20028;-66
2021/11/11 08:27:35;;;;;;;18.45;10.23;;;4.20;99.90;;;;;;5072572;28;20027;-66
2021/11/11 08:30:02;;;;;;;14.18;10.20;;;4.20;99.90;;;;;;5072423;28;20109;-65
2021/11/11 08:32:27;;;;;;;15.73;10.65;;;4.30;99.90;;;;;;5071604;28;20029;-66
2021/11/11 08:34:53;;;;;;;15.35;10.55;;;4.00;99.90;;;;;;5072161;28;20024;-66
2021/11/11 08:37:19;;;;;;;14.90;10.02;;;4.10;99.90;;;;;;5071098;28;20129;-66
2021/11/11 08:39:45;;;;;;;16.00;10.20;;;4.20;99.90;;;;;;5070478;28;20037;-67
2021/11/11 08:42:12;;;;;;;14.75;10.32;;;4.40;99.90;;;;;;5070890;28;20385;-67
2021/11/11 08:44:43;;;;;;;20.85;10.88;;;4.40;99.90;;;;;;5071964;28;20032;-64
2021/11/11 08:47:14;;;;;;;18.70;11.10;;;4.50;99.90;;;;;;5071070;28;20029;-67
2021/11/11 08:49:42;;;;;;;19.27;10.32;;;4.60;99.90;;;;;;5057877;28;20498;-66
2021/11/11 08:52:09;;;;;;;17.48;10.48;;;4.60;99.90;;;;;;5064043;28;20074;-66
2021/11/11 08:54:35;;;;;;;17.85;11.30;;;4.60;99.90;;;;;;5076579;28;20535;-66
2021/11/11 08:57:03;;;;;;;19.35;10.90;;;4.60;99.90;;;;;;5077964;28;20474;-65
2021/11/11 08:59:29;;;;;;;14.20;10.05;;;4.70;99.90;;;;;;5079766;28;20119;-65
2021/11/11 09:01:55;;;;;;;16.60;12.27;;;4.80;99.90;;;;;;5070867;28;20119;-65
2021/11/11 09:04:21;;;;;;;20.02;12.32;;;4.80;99.90;;;;;;5069265;28;20028;-67
2021/11/11 09:06:49;;;;;;;19.75;11.95;;;4.90;99.90;;;;;;5073666;28;20058;-68
2021/11/11 09:09:15;;;;;;;17.00;12.75;;;5.10;99.90;;;;;;5068366;28;20028;-66
2021/11/11 09:11:42;;;;;;;21.52;11.57;;;5.00;99.90;;;;;;5064055;28;20134;-66
2021/11/11 09:14:08;;;;;;;17.13;12.10;;;4.90;99.90;;;;;;5070312;28;20034;-68
2021/11/11 09:16:35;;;;;;;24.23;13.95;;;4.80;99.90;;;;;;5080162;28;20063;-61
2021/11/11 09:19:02;;;;;;;23.20;12.75;;;6.20;99.90;;;;;;5082331;28;20381;-67
2021/11/11 09:21:29;;;;;;;24.98;12.52;;;5.80;99.90;;;;;;5074941;28;20107;-65
2021/11/11 09:23:55;;;;;;;17.58;11.60;;;5.30;99.90;;;;;;5072728;28;20529;-66
2021/11/11 09:26:21;;;;;;;27.58;14.23;;;5.30;99.90;;;;;;5075017;28;20024;-67
2021/11/11 09:28:47;;;;;;;27.23;12.10;;;5.40;99.90;;;;;;5081710;28;20024;-66
2021/11/11 09:31:14;;;;;;;19.88;12.02;;;5.40;99.90;;;;;;5071633;28;20024;-67
2021/11/11 09:33:41;;;;;;;21.45;13.13;;;5.30;99.90;;;;;;5071866;28;20123;-73
2021/11/11 09:36:08;;;;;;;23.10;14.57;;;5.00;99.90;;;;;;5060545;28;20035;-58
2021/11/11 09:38:34;;;;;;;26.63;12.77;;;5.00;99.90;;;;;;5077279;28;20525;-66
2021/11/11 09:41:00;;;;;;;19.88;12.60;;;5.20;99.90;;;;;;5072763;28;20575;-66
2021/11/11 09:43:26;;;;;;;20.42;12.10;;;5.20;99.90;;;;;;5088013;28;20036;-65
2021/11/11 09:45:52;;;;;;;19.73;12.95;;;5.30;99.90;;;;;;5088042;28;20035;-69
2021/11/11 09:48:18;;;;;;;19.58;12.57;;;5.20;99.90;;;;;;5079750;28;20040;-67
2021/11/11 09:50:45;;;;;;;22.42;14.00;;;4.90;99.90;;;;;;5078863;28;20103;-68
2021/11/11 09:53:20;;;;;;;21.90;13.32;;;4.80;99.90;;;;;;5085058;28;20510;-66
2021/11/11 09:58:46;;;;;;;19.90;12.68;;;5.30;99.90;;;;;;5071310;28;20036;-67
2021/11/11 10:01:16;;;;;;;21.20;13.68;;;5.60;99.90;;;;;;5059532;28;20123;-67
2021/11/11 10:03:44;;;;;;;23.65;12.82;;;5.70;99.90;;;;;;5091971;28;20020;-66
2021/11/11 10:06:15;;;;;;;18.67;13.43;;;5.50;99.90;;;;;;5073199;28;20031;-65
2021/11/11 10:08:48;;;;;;;22.40;15.32;;;5.60;99.90;;;;;;5092397;28;20016;-66
2021/11/11 10:11:29;;;;;;;21.27;12.77;;;5.70;99.90;;;;;;5073307;28;20130;-66
2021/11/11 10:13:57;;;;;;;20.15;14.00;;;5.90;99.90;;;;;;5091798;28;20099;-62
2021/11/11 10:16:23;;;;;;;29.05;15.90;;;6.30;99.90;;;;;;5090808;28;20040;-63
2021/11/11 10:18:56;;;;;;;28.05;15.60;;;6.50;99.90;;;;;;5091463;28;20027;-65
2021/11/11 10:21:50;;;;;;;20.13;15.30;;;6.30;99.90;;;;;;5091180;28;20115;-68
2021/11/11 10:24:31;;;;;;;23.58;14.60;;;6.10;99.90;;;;;;5072639;28;20494;-64
2021/11/11 10:30:19;;;;;;;20.85;13.80;;;5.70;99.90;;;;;;5080485;28;20035;-72
2021/11/11 10:32:46;;;;;;;25.10;16.33;;;6.00;99.90;;;;;;5071128;28;20481;-66
2021/11/11 10:35:24;;;;;;;26.25;16.23;;;6.20;99.90;;;;;;5052098;28;20043;-69
2021/11/11 10:37:50;;;;;;;28.52;15.90;;;6.00;99.90;;;;;;5072971;28;20105;-68
2021/11/11 10:40:29;;;;;;;26.33;14.57;;;7.30;99.90;;;;;;5073116;28;20032;-67
2021/11/11 10:42:56;;;;;;;23.52;14.68;;;8.70;99.90;;;;;;5091728;28;20023;-65
2021/11/11 10:45:24;;;;;;;22.55;14.35;;;7.90;99.90;;;;;;5090519;28;20051;-66
2021/11/11 10:47:54;;;;;;;18.58;13.77;;;7.10;99.90;;;;;;5084194;28;20040;-65
2021/11/11 10:50:23;;;;;;;22.52;16.02;;;6.80;99.90;;;;;;5052901;28;20075;-65
2021/11/11 10:52:52;;;;;;;23.13;14.48;;;6.90;99.90;;;;;;5071502;28;20025;-65
2021/11/11 10:55:19;;;;;;;23.80;15.32;;;7.10;99.90;;;;;;5052604;28;20024;-65
2021/11/11 10:57:49;;;;;;;20.95;14.52;;;6.70;99.90;;;;;;5053039;28;20399;-66
2021/11/11 11:00:27;;;;;;;22.23;15.18;;;7.30;99.90;;;;;;5070475;28;20127;-66
2021/11/11 11:03:23;;;;;;;21.52;15.30;;;7.90;99.90;;;;;;5070779;28;20024;-65
2021/11/11 11:06:01;;;;;;;21.15;14.50;;;8.00;99.90;;;;;;5070671;28;20016;-65
2021/11/11 11:08:35;;;;;;;19.73;14.13;;;8.40;99.90;;;;;;5070416;28;20531;-66
2021/11/11 11:11:05;;;;;;;21.67;12.90;;;;;;;;;;5073662;28;20457;-66
2021/11/11 11:13:35;;;;;;;22.35;13.98;;;11.10;99.90;;;;;;5088975;28;20473;-65
2021/11/11 11:16:13;;;;;;;18.85;13.55;;;12.00;99.90;;;;;;5078656;28;20097;-65
2021/11/11 11:18:46;;;;;;;22.88;14.38;;;13.00;99.90;;;;;;5090888;28;20083;-64
2021/11/11 11:21:23;;;;;;;20.98;13.40;;;13.50;99.90;;;;;;5087200;28;20120;-67
2021/11/11 11:24:00;;;;;;;18.40;13.55;;;13.90;99.60;;;;;;5077381;28;20397;-65
2021/11/11 11:26:32;;;;;;;28.80;15.18;;;13.20;98.50;;;;;;5069816;28;20028;-69
2021/11/11 11:29:14;;;;;;;20.17;14.82;;;12.30;98.60;;;;;;5072899;28;20147;-66
2021/11/11 11:31:52;;;;;;;30.42;16.85;;;12.40;99.40;;;;;;5052819;28;20036;-66
2021/11/11 11:34:21;;;;;;;33.67;18.83;;;11.80;98.90;;;;;;5078103;28;20481;-67
2021/11/11 11:36:55;;;;;;;24.95;16.75;;;12.00;99.60;;;;;;5070353;28;20024;-66
2021/11/11 11:39:26;;;;;;;32.33;18.55;;;12.00;98.70;;;;;;5066737;28;20040;-67
2021/11/11 11:41:53;;;;;;;28.92;18.38;;;12.20;99.10;;;;;;5071507;28;20024;-65
2021/11/11 11:44:21;;;;;;;27.55;17.35;;;13.10;97.70;;;;;;5089529;28;20142;-66
2021/11/11 11:49:48;;;;;;;33.88;18.15;;;13.20;97.80;;;;;;5094140;28;20064;-65
2021/11/11 11:52:14;;;;;;;25.45;17.55;;;13.80;95.60;;;;;;5075463;28;20024;-67
2021/11/11 11:54:48;;;;;;;29.08;19.02;;;13.50;96.70;;;;;;5094149;28;20032;-66
2021/11/11 12:00:08;;;;;;;31.38;18.13;;;14.70;94.00;;;;;;5093754;28;20043;-65
2021/11/11 12:07:37;;;;;;;31.13;18.92;;;14.80;92.70;;;;;;5093315;28;20136;-67
2021/11/11 12:10:28;;;;;;;35.00;20.15;;;15.20;91.40;;;;;;5093681;28;20036;-67
2021/11/11 12:16:23;;;;;;;29.10;17.92;;;14.50;92.40;;;;;;5092592;28;20092;-66
2021/11/11 12:38:38;;;;;;;55.45;22.83;;;15.00;91.70;;;;;;5071753;28;20815;-68
2021/11/11 12:41:10;;;;;;;38.78;20.85;;;15.00;90.70;;;;;;5052804;28;20482;-66
2021/11/11 12:43:36;;;;;;;32.20;19.85;;;15.30;90.80;;;;;;5072059;28;20082;-66
2021/11/11 12:46:03;;;;;;;29.02;20.95;;;15.20;90.60;;;;;;5072585;28;20029;-67
2021/11/11 12:48:30;;;;;;;30.10;21.05;;;15.50;90.20;;;;;;5054254;28;20033;-66
2021/11/11 12:50:59;;;;;;;29.15;20.15;;;15.60;89.80;;;;;;5054566;28;20028;-67
2021/11/11 12:53:43;;;;;;;30.33;21.52;;;15.80;90.20;;;;;;5071651;28;20094;-66
2021/11/11 12:56:13;;;;;;;35.05;20.95;;;15.90;88.80;;;;;;5070389;28;20039;-66
2021/11/11 12:58:42;;;;;;;36.70;23.17;;;15.10;91.00;;;;;;5061746;28;20074;-67
2021/11/11 13:01:13;;;;;;;37.83;23.60;;;15.60;90.20;;;;;;5064309;28;20029;-68
2021/11/11 13:04:09;;;;;;;29.63;23.57;;;14.40;91.70;;;;;;5062103;28;20025;-66
2021/11/11 13:06:53;;;;;;;40.63;24.98;;;14.40;91.80;;;;;;5049293;28;20033;-65
2021/11/11 13:09:24;;;;;;;36.35;25.88;;;13.50;93.00;;;;;;5071158;28;20379;-66
2021/11/11 13:12:01;;;;;;;39.30;26.75;;;14.00;92.30;;;;;;5071532;28;20433;-65
2021/11/11 13:14:57;;;;;;;40.05;26.15;;;13.30;93.60;;;;;;5052874;28;20473;-66
2021/11/11 13:17:25;;;;;;;44.15;25.95;;;13.80;93.30;;;;;;5077698;28;20131;-67
2021/11/11 13:20:01;;;;;;;48.13;27.77;;;13.20;94.00;;;;;;5069766;28;20041;-66
2021/11/11 13:22:46;;;;;;;41.50;27.15;;;13.10;94.70;;;;;;5053805;28;20032;-65
2021/11/11 16:03:17;;;;;;;84.50;44.25;;;7.30;99.90;;;;;;5084681;28;20078;-66
2021/11/11 16:25:24;;;;;;;81.40;37.92;;;7.90;99.90;;;;;;5080683;28;20080;-64
2021/11/11 16:27:38;;;;;;;79.05;39.33;;;7.70;99.90;;;;;;5080024;28;20037;-63
2021/11/11 16:30:17;;;;;;;68.80;35.65;;;7.60;99.90;;;;;;5073024;28;20028;-66
2021/11/11 16:32:44;;;;;;;76.28;39.97;;;7.50;99.90;;;;;;5061917;28;20096;-66
2021/11/11 16:35:12;;;;;;;72.95;36.55;;;7.40;99.90;;;;;;5084602;28;20028;-63
2021/11/11 16:37:38;;;;;;;72.38;37.03;;;7.30;99.90;;;;;;5092264;28;20115;-64
2021/11/11 16:40:06;;;;;;;68.53;34.53;;;7.30;99.90;;;;;;5090176;28;20082;-67